createdAt,value
2022-12-29T00:00:20.429Z,2.80
2022-12-29T00:02:47.675Z,2.80
2022-12-29T00:05:14.855Z,2.80
2022-12-29T00:07:41.840Z,2.90
2022-12-29T00:10:09.217Z,2.90
2022-12-29T00:12:54.493Z,2.90
2022-12-29T00:15:39.989Z,2.80
2022-12-29T00:18:08.322Z,2.80
2022-12-29T00:20:55.856Z,2.80
2022-12-29T00:23:41.517Z,2.90
2022-12-29T00:26:34.809Z,2.90
2022-12-29T00:29:20.465Z,2.90
2022-12-29T00:32:05.897Z,2.90
2022-12-29T00:34:51.451Z,2.90
2022-12-29T00:37:38.681Z,2.90
2022-12-29T00:40:24.470Z,2.80
2022-12-29T00:43:10.106Z,2.80
2022-12-29T00:45:37.092Z,2.70
2022-12-29T00:48:04.215Z,2.70
2022-12-29T00:50:31.194Z,2.70
2022-12-29T00:52:58.114Z,2.60
2022-12-29T00:55:25.077Z,2.70
2022-12-29T00:57:52.073Z,2.70
2022-12-29T01:00:19.180Z,2.60
2022-12-29T01:02:46.269Z,2.60
2022-12-29T01:05:13.551Z,2.60
2022-12-29T01:07:40.631Z,2.60
2022-12-29T01:10:10.825Z,2.50
2022-12-29T01:12:44.922Z,2.60
2022-12-29T01:15:14.589Z,2.60
2022-12-29T01:17:41.600Z,2.60
2022-12-29T01:20:09.228Z,2.60
2022-12-29T01:22:36.355Z,2.60
2022-12-29T01:25:04.303Z,2.60
2022-12-29T01:27:31.372Z,2.60
2022-12-29T01:29:58.455Z,2.60
2022-12-29T01:32:25.459Z,2.60
2022-12-29T01:34:52.477Z,2.60
2022-12-29T01:37:19.556Z,2.60
2022-12-29T01:39:46.569Z,2.60
2022-12-29T01:42:19.382Z,2.70
2022-12-29T01:44:58.141Z,2.80
2022-12-29T01:47:39.565Z,2.80
2022-12-29T01:50:11.695Z,2.90
2022-12-29T01:52:45.151Z,3.00
2022-12-29T01:55:13.071Z,3.10
2022-12-29T01:57:45.021Z,3.20
2022-12-29T02:00:14.818Z,3.30
2022-12-29T02:02:51.225Z,3.40
2022-12-29T02:05:30.205Z,3.50
2022-12-29T02:07:57.644Z,3.60
2022-12-29T02:10:27.270Z,3.60
2022-12-29T02:12:54.870Z,3.70
2022-12-29T02:15:28.884Z,3.70
2022-12-29T02:18:22.014Z,3.80
2022-12-29T02:21:06.463Z,3.80
2022-12-29T02:23:59.769Z,3.80
2022-12-29T02:27:08.640Z,3.90
2022-12-29T02:29:54.150Z,4.00
2022-12-29T02:32:41.471Z,4.10
2022-12-29T02:35:29.419Z,4.20
2022-12-29T02:38:15.067Z,4.20
2022-12-29T02:40:54.443Z,4.20
2022-12-29T02:43:43.950Z,4.10
2022-12-29T02:46:33.977Z,4.10
2022-12-29T02:49:27.535Z,4.20
2022-12-29T02:52:33.573Z,4.10
2022-12-29T02:55:00.745Z,4.20
2022-12-29T02:57:27.772Z,4.20
2022-12-29T03:00:16.347Z,4.10
2022-12-29T03:02:53.981Z,4.10
2022-12-29T03:05:34.428Z,4.20
2022-12-29T03:08:28.658Z,4.30
2022-12-29T03:11:41.292Z,4.30
2022-12-29T03:14:55.707Z,4.20
2022-12-29T03:17:31.088Z,4.30
2022-12-29T03:20:08.562Z,4.30
2022-12-29T03:22:41.129Z,4.30
2022-12-29T03:25:21.936Z,4.30
2022-12-29T03:27:57.377Z,4.30
2022-12-29T03:30:25.677Z,4.40
2022-12-29T03:32:57.289Z,4.40
2022-12-29T03:35:28.368Z,4.40
2022-12-29T03:38:22.436Z,4.40
2022-12-29T03:40:55.155Z,4.40
2022-12-29T03:43:22.654Z,4.40
2022-12-29T03:45:49.768Z,4.40
2022-12-29T03:48:16.843Z,4.50
2022-12-29T03:50:44.175Z,4.50
2022-12-29T03:53:11.125Z,4.50
2022-12-29T03:55:38.051Z,4.50
2022-12-29T03:58:05.161Z,4.40
2022-12-29T04:00:32.187Z,4.40
2022-12-29T04:02:59.406Z,4.40
2022-12-29T04:05:26.691Z,4.40
2022-12-29T04:07:53.633Z,4.50
2022-12-29T04:10:20.620Z,4.50
2022-12-29T04:12:47.782Z,4.40
2022-12-29T04:15:14.957Z,4.30
2022-12-29T04:17:42.021Z,4.40
2022-12-29T04:20:28.379Z,4.30
2022-12-29T04:23:05.791Z,4.40
2022-12-29T04:25:33.767Z,4.30
2022-12-29T04:28:01.705Z,4.40
2022-12-29T04:30:28.889Z,4.40
2022-12-29T04:32:55.919Z,4.40
2022-12-29T04:35:23.019Z,4.40
2022-12-29T04:37:50.021Z,4.50
2022-12-29T04:40:17.034Z,4.60
2022-12-29T04:42:44.040Z,4.70
2022-12-29T04:45:11.513Z,4.80
2022-12-29T04:47:38.691Z,4.90
2022-12-29T04:50:06.323Z,5.00
2022-12-29T04:52:33.357Z,5.10
2022-12-29T04:55:00.371Z,5.10
2022-12-29T04:57:28.071Z,5.10
2022-12-29T04:59:55.114Z,5.20
2022-12-29T05:02:22.372Z,5.10
2022-12-29T05:04:49.558Z,5.10
2022-12-29T05:07:16.779Z,5.10
2022-12-29T05:09:43.801Z,5.20
2022-12-29T05:12:10.850Z,5.20
2022-12-29T05:14:37.870Z,5.20
2022-12-29T05:17:04.921Z,5.10
2022-12-29T05:19:32.557Z,5.00
2022-12-29T05:21:59.591Z,5.00
2022-12-29T05:24:26.674Z,5.00
2022-12-29T05:26:53.788Z,4.90
2022-12-29T05:29:20.905Z,4.90
2022-12-29T05:31:48.014Z,4.60
2022-12-29T05:34:15.257Z,4.70
2022-12-29T05:36:42.397Z,4.70
2022-12-29T05:39:09.366Z,4.60
2022-12-29T05:41:36.753Z,4.50
2022-12-29T05:44:04.058Z,4.40
2022-12-29T05:46:31.679Z,4.30
2022-12-29T05:48:58.699Z,4.40
2022-12-29T05:51:25.702Z,4.30
2022-12-29T05:53:53.074Z,4.40
2022-12-29T05:56:20.273Z,4.40
2022-12-29T05:58:47.363Z,4.40
2022-12-29T06:01:14.405Z,4.40
2022-12-29T06:03:47.780Z,4.50
2022-12-29T06:06:15.604Z,4.50
2022-12-29T06:08:42.806Z,4.50
2022-12-29T06:11:10.262Z,4.50
2022-12-29T06:13:37.519Z,4.60
2022-12-29T06:16:04.968Z,4.70
2022-12-29T06:18:32.092Z,4.70
2022-12-29T06:21:03.761Z,4.60
2022-12-29T06:23:31.520Z,4.70
2022-12-29T06:25:58.718Z,4.70
2022-12-29T06:28:25.946Z,4.60
2022-12-29T06:30:53.138Z,4.50
2022-12-29T06:33:20.357Z,4.60
2022-12-29T06:35:47.402Z,4.60
2022-12-29T06:38:14.400Z,4.70
2022-12-29T06:40:42.661Z,4.70
2022-12-29T06:43:09.634Z,4.80
2022-12-29T06:45:38.584Z,4.80
2022-12-29T06:48:05.756Z,4.80
2022-12-29T06:50:32.899Z,5.00
2022-12-29T06:52:59.849Z,5.10
2022-12-29T06:55:27.120Z,5.20
2022-12-29T06:57:57.335Z,5.30
2022-12-29T07:00:26.121Z,5.20
2022-12-29T07:02:53.389Z,5.20
2022-12-29T07:05:20.559Z,5.20
2022-12-29T07:07:47.587Z,5.20
2022-12-29T07:10:14.642Z,5.20
2022-12-29T07:12:41.639Z,5.20
2022-12-29T07:15:09.046Z,5.20
2022-12-29T07:17:36.122Z,5.30
2022-12-29T07:20:03.495Z,5.30
2022-12-29T07:22:30.494Z,5.30
2022-12-29T07:24:57.571Z,5.40
2022-12-29T07:27:24.646Z,5.40
2022-12-29T07:29:51.716Z,5.50
2022-12-29T07:32:18.757Z,5.50
2022-12-29T07:34:48.488Z,5.60
2022-12-29T07:37:18.849Z,5.60
2022-12-29T07:39:46.002Z,5.70
2022-12-29T07:42:12.923Z,5.70
2022-12-29T07:44:40.006Z,5.70
2022-12-29T07:47:07.022Z,5.80
2022-12-29T07:49:34.295Z,5.90
2022-12-29T07:52:01.396Z,5.90
2022-12-29T07:54:28.459Z,6.00
2022-12-29T07:56:55.561Z,6.10
2022-12-29T07:59:22.671Z,6.10
2022-12-29T08:01:49.812Z,6.10
2022-12-29T08:04:17.006Z,6.30
2022-12-29T08:06:44.129Z,6.40
2022-12-29T08:09:15.031Z,6.50
2022-12-29T08:11:45.574Z,6.50
2022-12-29T08:14:12.627Z,6.50
2022-12-29T08:16:39.869Z,6.60
2022-12-29T08:19:06.904Z,6.70
2022-12-29T08:21:33.967Z,6.80
2022-12-29T08:24:01.004Z,6.90
2022-12-29T08:26:27.992Z,7.10
2022-12-29T08:28:56.843Z,7.20
2022-12-29T08:31:25.032Z,7.40
2022-12-29T08:33:52.494Z,7.50
2022-12-29T08:36:19.635Z,7.60
2022-12-29T08:38:46.627Z,7.80
2022-12-29T08:41:13.899Z,7.90
2022-12-29T08:43:40.983Z,8.00
2022-12-29T08:46:08.108Z,8.20
2022-12-29T08:48:35.142Z,8.20
2022-12-29T08:51:02.167Z,8.40
2022-12-29T08:53:29.269Z,8.40
2022-12-29T08:56:04.595Z,8.60
2022-12-29T08:58:33.171Z,8.70
2022-12-29T09:01:00.376Z,8.90
2022-12-29T09:06:16.206Z,9.10
2022-12-29T09:08:43.508Z,9.20
2022-12-29T09:11:20.315Z,9.30
2022-12-29T09:13:48.110Z,9.40
2022-12-29T09:16:16.596Z,9.50
2022-12-29T09:18:44.997Z,9.70
2022-12-29T09:21:12.852Z,9.80
2022-12-29T09:23:40.645Z,10.00
2022-12-29T09:26:09.056Z,10.10
2022-12-29T09:28:36.462Z,10.30
2022-12-29T09:31:03.672Z,10.50
2022-12-29T09:33:30.991Z,10.80
2022-12-29T09:35:59.416Z,10.90
2022-12-29T09:38:28.475Z,11.10
2022-12-29T09:41:08.443Z,11.30
2022-12-29T09:43:44.098Z,11.60
2022-12-29T09:46:25.586Z,11.80
2022-12-29T09:49:09.639Z,12.10
2022-12-29T09:51:39.255Z,12.40
2022-12-29T09:54:39.699Z,12.60
2022-12-29T09:57:16.223Z,12.80
2022-12-29T09:59:45.022Z,12.90
2022-12-29T10:02:34.161Z,13.10
2022-12-29T10:05:01.562Z,13.30
2022-12-29T10:07:31.514Z,13.60
2022-12-29T10:10:08.825Z,13.90
2022-12-29T10:13:02.655Z,14.20
2022-12-29T10:15:57.759Z,14.50
2022-12-29T10:18:56.845Z,14.70
2022-12-29T10:21:50.910Z,15.00
2022-12-29T10:24:19.936Z,15.00
2022-12-29T10:26:48.606Z,15.10
2022-12-29T10:29:25.706Z,15.10
2022-12-29T10:32:07.070Z,15.20
2022-12-29T10:34:46.596Z,15.20
2022-12-29T10:37:34.182Z,15.30
2022-12-29T10:40:13.584Z,15.40
2022-12-29T10:42:49.726Z,15.40
2022-12-29T10:45:19.670Z,15.60
2022-12-29T10:48:04.552Z,15.70
2022-12-29T10:50:31.671Z,15.70
2022-12-29T10:53:06.089Z,15.80
2022-12-29T10:55:39.592Z,15.70
2022-12-29T10:58:11.054Z,15.60
2022-12-29T11:00:38.208Z,15.50
2022-12-29T11:03:41.346Z,15.50
2022-12-29T11:06:11.336Z,15.60
2022-12-29T11:08:42.611Z,15.90
2022-12-29T11:11:11.302Z,15.90
2022-12-29T11:13:52.802Z,15.90
2022-12-29T11:16:32.166Z,16.10
2022-12-29T11:19:00.048Z,16.10
2022-12-29T11:21:41.336Z,16.20
2022-12-29T11:24:20.252Z,16.30
2022-12-29T11:26:48.417Z,16.30
2022-12-29T11:29:15.401Z,16.30
2022-12-29T11:31:43.117Z,16.40
2022-12-29T11:34:10.339Z,16.40
2022-12-29T11:36:37.661Z,16.50
2022-12-29T11:39:13.714Z,16.60
2022-12-29T11:41:41.189Z,16.80
2022-12-29T11:44:14.298Z,16.60
2022-12-29T11:46:42.919Z,16.70
2022-12-29T11:49:20.405Z,16.80
2022-12-29T11:51:49.841Z,16.90
2022-12-29T11:54:31.065Z,16.90
2022-12-29T11:57:09.821Z,16.80
2022-12-29T11:59:42.137Z,16.80
2022-12-29T12:02:38.806Z,16.80
2022-12-29T12:05:21.129Z,16.80
2022-12-29T12:08:21.303Z,16.60
2022-12-29T12:10:57.726Z,16.50
2022-12-29T12:13:38.144Z,16.50
2022-12-29T12:16:19.650Z,16.50
2022-12-29T12:19:21.743Z,16.60
2022-12-29T12:21:56.168Z,16.60
2022-12-29T12:24:28.984Z,16.50
2022-12-29T12:27:18.809Z,16.60
2022-12-29T12:29:56.858Z,16.50
2022-12-29T12:32:44.239Z,16.40
2022-12-29T12:35:21.840Z,16.50
2022-12-29T12:38:04.601Z,16.70
2022-12-29T12:41:02.539Z,16.80
2022-12-29T12:43:42.487Z,17.10
2022-12-29T12:46:20.178Z,17.30
2022-12-29T12:49:35.250Z,17.40
2022-12-29T12:52:14.010Z,17.30
2022-12-29T12:54:59.812Z,17.20
2022-12-29T12:57:49.971Z,17.10
2022-12-29T13:00:24.474Z,17.10
2022-12-29T13:03:10.720Z,16.90
2022-12-29T13:05:53.148Z,16.80
2022-12-29T13:08:41.564Z,16.80
2022-12-29T13:11:40.287Z,16.80
2022-12-29T13:14:28.410Z,16.80
2022-12-29T13:17:07.110Z,16.80
2022-12-29T13:19:56.954Z,16.80
2022-12-29T13:23:11.088Z,16.70
2022-12-29T13:26:13.084Z,16.70
2022-12-29T13:29:06.942Z,16.80
2022-12-29T13:32:03.225Z,16.70
2022-12-29T13:35:06.248Z,16.70
2022-12-29T13:37:42.559Z,16.60
2022-12-29T13:40:18.280Z,16.50
2022-12-29T13:42:47.358Z,16.40
2022-12-29T13:45:22.024Z,16.30
2022-12-29T13:47:54.737Z,16.20
2022-12-29T13:50:26.667Z,16.20
2022-12-29T13:53:27.399Z,16.30
2022-12-29T13:56:25.532Z,16.40
2022-12-29T13:59:05.144Z,16.30
2022-12-29T14:01:35.244Z,16.20
2022-12-29T14:04:23.594Z,16.10
2022-12-29T14:07:18.094Z,16.00
2022-12-29T14:09:56.966Z,15.90
2022-12-29T14:12:43.251Z,15.80
2022-12-29T14:15:10.230Z,15.60
2022-12-29T14:17:38.964Z,15.50
2022-12-29T14:20:17.304Z,15.40
2022-12-29T14:23:01.083Z,15.30
2022-12-29T14:25:57.669Z,15.20
2022-12-29T14:28:30.136Z,15.20
2022-12-29T14:31:05.126Z,15.20
2022-12-29T14:33:34.757Z,15.20
2022-12-29T14:36:21.982Z,15.20
2022-12-29T14:38:49.688Z,15.20
2022-12-29T14:41:27.165Z,15.10
2022-12-29T14:44:17.097Z,15.00
2022-12-29T14:47:06.745Z,14.80
2022-12-29T14:49:42.819Z,14.70
2022-12-29T14:52:15.733Z,14.60
2022-12-29T14:54:46.260Z,14.50
2022-12-29T14:57:35.634Z,14.50
2022-12-29T15:00:31.643Z,14.40
2022-12-29T15:03:12.047Z,14.40
2022-12-29T15:06:12.642Z,14.40
2022-12-29T15:08:53.655Z,14.30
2022-12-29T15:11:45.819Z,14.20
2022-12-29T15:14:36.329Z,14.10
2022-12-29T15:17:12.078Z,13.90
2022-12-29T15:19:39.139Z,13.90
2022-12-29T15:22:07.528Z,13.90
2022-12-29T15:24:40.904Z,13.80
2022-12-29T15:27:19.953Z,13.90
2022-12-29T15:29:47.732Z,13.90
2022-12-29T15:32:19.809Z,13.80
2022-12-29T15:34:49.897Z,13.80
2022-12-29T15:37:23.378Z,13.80
2022-12-29T15:39:51.687Z,13.80
2022-12-29T15:42:43.206Z,13.70
2022-12-29T15:45:15.070Z,13.60
2022-12-29T15:47:45.294Z,13.50
2022-12-29T15:50:24.234Z,13.40
2022-12-29T15:52:51.959Z,13.40
2022-12-29T15:55:42.787Z,13.40
2022-12-29T15:58:27.976Z,13.40
2022-12-29T16:01:00.974Z,13.40
2022-12-29T16:03:32.395Z,13.30
2022-12-29T16:06:23.886Z,13.30
2022-12-29T16:08:58.307Z,13.30
2022-12-29T16:11:27.554Z,13.20
2022-12-29T16:13:56.267Z,13.20
2022-12-29T16:16:31.244Z,13.20
2022-12-29T16:18:59.029Z,13.10
2022-12-29T16:21:36.997Z,13.00
2022-12-29T16:24:13.154Z,13.00
2022-12-29T16:26:40.584Z,13.00
2022-12-29T16:29:09.416Z,13.00
2022-12-29T16:32:04.282Z,12.90
2022-12-29T16:34:49.489Z,12.90
2022-12-29T16:37:38.545Z,12.80
2022-12-29T16:40:31.836Z,12.80
2022-12-29T16:43:04.912Z,12.90
2022-12-29T16:46:18.882Z,12.90
2022-12-29T16:48:57.159Z,13.00
2022-12-29T16:51:37.516Z,12.90
2022-12-29T16:54:05.670Z,12.80
2022-12-29T16:56:36.269Z,12.80
2022-12-29T16:59:23.115Z,12.70
2022-12-29T17:01:50.409Z,12.70
2022-12-29T17:04:17.518Z,12.80
2022-12-29T17:06:44.746Z,13.00
2022-12-29T17:09:26.398Z,13.00
2022-12-29T17:12:02.590Z,12.90
2022-12-29T17:14:47.730Z,12.90
2022-12-29T17:17:55.928Z,12.80
2022-12-29T17:20:29.629Z,12.90
2022-12-29T17:22:58.111Z,12.80
2022-12-29T17:25:31.706Z,12.70
2022-12-29T17:28:05.075Z,12.70
2022-12-29T17:30:35.289Z,12.70
2022-12-29T17:33:10.128Z,12.60
2022-12-29T17:35:38.192Z,12.60
2022-12-29T17:38:19.795Z,12.50
2022-12-29T17:40:47.307Z,12.60
2022-12-29T17:43:16.224Z,12.50
2022-12-29T17:45:47.736Z,12.50
2022-12-29T17:48:16.777Z,12.50
2022-12-29T17:50:46.282Z,12.50
2022-12-29T17:53:15.765Z,12.50
2022-12-29T17:55:43.058Z,12.40
2022-12-29T17:58:18.366Z,12.50
2022-12-29T18:00:46.675Z,12.50
2022-12-29T18:03:19.935Z,12.50
2022-12-29T18:05:49.921Z,12.40
2022-12-29T18:08:17.004Z,12.50
2022-12-29T18:10:44.664Z,12.50
2022-12-29T18:13:40.424Z,12.50
2022-12-29T18:16:13.819Z,12.60
2022-12-29T18:18:41.063Z,12.70
2022-12-29T18:21:19.654Z,12.70
2022-12-29T18:23:47.720Z,12.70
2022-12-29T18:26:19.685Z,12.60
2022-12-29T18:28:51.732Z,12.70
2022-12-29T18:31:27.897Z,12.70
2022-12-29T18:33:55.322Z,12.70
2022-12-29T18:36:23.041Z,12.60
2022-12-29T18:38:51.091Z,12.60
2022-12-29T18:41:21.183Z,12.70
2022-12-29T18:43:48.415Z,12.80
2022-12-29T18:46:22.157Z,12.80
2022-12-29T18:48:50.567Z,12.90
2022-12-29T18:51:20.370Z,12.90
2022-12-29T18:53:48.440Z,13.00
2022-12-29T18:56:16.073Z,13.10
2022-12-29T18:58:43.220Z,13.20
2022-12-29T19:01:24.532Z,13.20
2022-12-29T19:03:52.270Z,13.30
2022-12-29T19:06:21.179Z,13.50
2022-12-29T19:08:48.364Z,13.50
2022-12-29T19:11:15.464Z,13.60
2022-12-29T19:13:42.483Z,13.50
2022-12-29T19:16:18.705Z,13.40
2022-12-29T19:18:50.889Z,13.40
2022-12-29T19:21:25.554Z,13.20
2022-12-29T19:23:53.286Z,13.20
2022-12-29T19:26:39.595Z,13.10
2022-12-29T19:29:09.132Z,13.00
2022-12-29T19:31:38.201Z,13.00
2022-12-29T19:34:05.496Z,13.00
2022-12-29T19:36:32.537Z,12.90
2022-12-29T19:38:59.600Z,12.90
2022-12-29T19:41:26.714Z,12.90
2022-12-29T19:43:53.856Z,13.00
2022-12-29T19:46:21.434Z,12.90
2022-12-29T19:48:48.583Z,12.80
2022-12-29T19:51:17.407Z,12.80
2022-12-29T19:53:45.595Z,12.80
2022-12-29T19:56:14.499Z,12.80
2022-12-29T19:58:46.985Z,12.80
2022-12-29T20:01:20.358Z,12.80
2022-12-29T20:03:48.585Z,12.70
2022-12-29T20:06:16.432Z,12.70
2022-12-29T20:08:43.678Z,12.70
2022-12-29T20:11:13.731Z,12.60
2022-12-29T20:13:41.701Z,12.70
2022-12-29T20:16:12.913Z,12.60
2022-12-29T20:18:40.203Z,12.60
2022-12-29T20:21:19.709Z,12.60
2022-12-29T20:23:47.411Z,12.50
2022-12-29T20:26:23.146Z,12.60
2022-12-29T20:28:51.406Z,12.50
2022-12-29T20:31:26.109Z,12.50
2022-12-29T20:33:54.000Z,12.50
2022-12-29T20:36:27.616Z,12.50
2022-12-29T20:38:56.017Z,12.50
2022-12-29T20:41:23.584Z,12.50
2022-12-29T20:43:53.288Z,12.60
2022-12-29T20:46:23.236Z,12.60
2022-12-29T20:48:52.793Z,12.60
2022-12-29T20:51:21.169Z,12.60
2022-12-29T20:53:48.775Z,12.60
2022-12-29T20:56:19.226Z,12.70
2022-12-29T20:59:17.568Z,12.70
2022-12-29T21:01:33.810Z,12.90
2022-12-29T21:04:01.074Z,12.90
2022-12-29T21:06:28.281Z,12.90
2022-12-29T21:08:55.411Z,12.90
2022-12-29T21:11:22.960Z,12.90
2022-12-29T21:13:50.150Z,12.90
2022-12-29T21:16:21.150Z,12.90
2022-12-29T21:18:49.494Z,12.90
2022-12-29T21:21:24.677Z,12.90
2022-12-29T21:23:52.157Z,12.90
2022-12-29T21:26:22.249Z,12.80
2022-12-29T21:28:50.105Z,12.90
2022-12-29T21:31:33.630Z,13.00
2022-12-29T21:34:02.039Z,13.10
2022-12-29T21:36:29.880Z,13.10
2022-12-29T21:38:58.435Z,13.00
2022-12-29T21:41:25.967Z,12.90
2022-12-29T21:44:12.194Z,12.80
2022-12-29T21:46:41.094Z,12.80
2022-12-29T21:49:08.504Z,12.90
2022-12-29T21:51:51.331Z,13.00
2022-12-29T21:54:43.486Z,12.90
2022-12-29T21:57:16.616Z,12.90
2022-12-29T22:00:06.447Z,13.00
2022-12-29T22:02:52.605Z,13.10
2022-12-29T22:05:38.367Z,13.10
2022-12-29T22:08:24.234Z,13.00
2022-12-29T22:11:09.960Z,13.00
2022-12-29T22:13:39.047Z,13.00
2022-12-29T22:16:08.606Z,12.90
2022-12-29T22:18:36.540Z,12.90
2022-12-29T22:21:05.379Z,12.90
2022-12-29T22:23:32.461Z,13.00
2022-12-29T22:26:07.746Z,13.00
2022-12-29T22:28:39.951Z,13.00
2022-12-29T22:31:20.775Z,13.00
2022-12-29T22:33:48.045Z,13.00
2022-12-29T22:36:15.085Z,13.10
2022-12-29T22:38:42.204Z,12.90
2022-12-29T22:41:09.256Z,13.00
2022-12-29T22:43:36.324Z,13.00
2022-12-29T22:46:09.623Z,13.00
2022-12-29T22:48:37.186Z,13.00
2022-12-29T22:51:05.198Z,13.00
2022-12-29T22:53:32.157Z,12.90
2022-12-29T22:56:10.603Z,12.80
2022-12-29T22:58:42.140Z,12.90
2022-12-29T23:01:09.940Z,12.90
2022-12-29T23:03:38.396Z,12.90
2022-12-29T23:06:07.233Z,12.80
2022-12-29T23:08:37.055Z,12.80
2022-12-29T23:11:05.368Z,12.80
2022-12-29T23:13:32.806Z,12.70
2022-12-29T23:16:00.325Z,12.60
2022-12-29T23:18:27.655Z,12.50
2022-12-29T23:20:54.955Z,12.50
2022-12-29T23:23:46.411Z,12.50
2022-12-29T23:26:16.357Z,12.60
2022-12-29T23:28:43.508Z,12.50
2022-12-29T23:31:10.588Z,12.40
2022-12-29T23:33:37.774Z,12.40
2022-12-29T23:36:05.394Z,12.40
2022-12-29T23:38:32.454Z,12.40
2022-12-29T23:40:59.814Z,12.40
2022-12-29T23:43:27.108Z,12.50
2022-12-29T23:45:54.249Z,12.50
2022-12-29T23:48:21.237Z,12.50
2022-12-29T23:50:48.304Z,12.60
2022-12-29T23:53:15.479Z,12.50
2022-12-29T23:55:44.293Z,12.50
2022-12-29T23:58:11.349Z,12.50
